Date,TemperatureHighF,TemperatureAvgF,TemperatureLowF,DewpointHighF,DewpointAvgF,DewpointLowF,HumidityHigh,HumidityAvg,HumidityLow,PressureMaxIn,PressureMinIn,WindSpeedMaxMPH,WindSpeedAvgMPH,GustSpeedMaxMPH,PrecipitationSumIn
2012-1-1,51.3,42.3,34.2,43.3,35.5,25.5,98,78,49,29.95,29.39,26,7,26,0.04
2012-1-2,37.9,30.2,19.0,32.2,20.2,7.1,98,67,45,29.78,29.48,17,7,17,0.00
2012-1-3,19.2,11.9,5.9,11.2,-1.6,-11.4,74,55,44,30.13,29.75,17,6,17,0.00
2012-1-4,34.3,20.4,4.5,16.8,3.1,-12.7,62,47,36,30.13,29.72,17,6,17,0.00
2012-1-5,34.3,32.3,29.8,26.0,22.3,16.8,76,67,57,29.81,29.66,4,4,4,0.00
2012-1-6,54.5,43.4,32.9,31.9,27.8,22.5,74,55,38,29.66,29.51,4,4,4,0.04
2012-1-7,53.2,43.2,36.3,35.6,29.7,22.1,74,60,37,29.93,29.51,15,4,15,0.00
2012-1-8,36.3,29.9,21.2,27.4,19.0,13.5,86,64,46,30.25,29.93,4,4,4,0.00
2012-1-9,46.0,36.0,25.3,21.5,18.5,14.7,79,51,33,30.16,29.72,4,4,4,0.00
2012-1-10,41.7,39.2,36.0,29.5,24.9,18.0,69,57,40,29.90,29.66,11,3,11,0.00
2012-1-11,43.2,39.2,35.1,38.1,28.6,25.5,96,67,52,29.87,29.54,6,3,6,0.04
2012-1-12,44.1,40.2,35.6,43.5,39.6,35.1,98,98,95,29.60,29.19,7,2,7,0.62
2012-1-13,43.0,28.8,20.5,42.5,25.9,18.0,98,89,66,29.66,29.13,12,8,12,0.00
2012-1-14,23.9,17.6,10.8,21.4,8.4,-0.4,90,67,51,30.10,29.60,9,6,9,0.00
2012-1-15,26.8,13.4,7.0,7.1,-1.1,-8.6,68,52,42,30.43,30.07,8,2,8,0.00
2012-1-16,42.3,26.3,6.1,36.9,10.9,-9.4,98,54,36,30.40,29.72,3,3,4,0.46
2012-1-17,50.9,41.9,32.5,47.6,39.0,19.4,98,90,58,29.75,29.19,30,5,30,0.46
2012-1-18,32.4,23.6,15.3,20.7,9.8,2.8,76,56,41,30.04,29.54,5,5,5,0.00
2012-1-19,30.4,22.7,15.4,24.8,11.2,5.1,93,62,42,30.01,29.60,5,5,5,0.00
2012-1-20,30.0,18.7,14.0,11.5,5.8,2.1,78,57,42,30.16,29.84,5,5,5,0.00
2012-1-21,37.6,23.3,16.9,19.0,15.4,8.7,87,73,41,30.25,29.90,8,3,8,0.00
2012-1-22,39.4,26.6,15.1,27.7,16.5,11.5,88,68,40,30.28,29.99,8,3,9,0.04
2012-1-23,49.8,42.1,33.8,42.9,35.7,27.2,91,78,67,29.99,29.51,30,8,30,0.12
2012-1-24,39.6,34.9,32.7,32.6,28.4,22.4,89,77,65,30.10,29.63,21,6,21,0.00
2012-1-25,33.1,31.5,30.4,24.8,22.4,20.0,79,69,63,30.22,30.10,5,5,5,0.00
2012-1-26,37.0,33.0,28.2,36.5,30.7,24.6,98,92,72,30.13,29.45,5,5,5,0.17
2012-1-27,44.8,37.9,34.5,44.3,35.4,24.0,98,91,66,29.81,29.19,13,4,13,0.55
2012-1-28,39.9,34.5,29.5,33.8,25.5,12.7,86,70,45,29.87,29.57,14,4,14,0.00
2012-1-29,37.8,31.8,27.1,29.9,21.0,10.0,98,66,42,29.93,29.78,16,4,16,0.00
2012-1-30,41.2,29.1,23.4,26.7,18.8,10.1,96,69,34,30.13,29.93,15,4,15,0.04
2012-1-31,56.7,44.1,28.9,35.2,30.2,24.1,85,61,38,29.93,29.69,15,4,15,0.09
2012-2-1,55.2,45.7,37.2,47.6,34.3,27.0,94,65,47,30.01,29.69,18,6,18,0.04
2012-2-2,37.2,32.4,29.8,29.9,26.6,20.2,92,79,66,30.25,29.95,10,4,10,0.00
2012-2-3,39.4,33.9,28.9,31.1,26.5,19.2,83,74,63,30.34,30.19,8,3,8,0.04
2012-2-4,42.1,34.0,27.5,31.1,25.1,19.9,85,71,45,30.22,30.04,9,3,9,0.00
2012-2-5,37.4,31.6,28.9,25.4,23.2,20.6,82,71,53,30.10,30.01,8,2,8,0.00
2012-2-6,52.9,42.1,30.9,30.4,24.6,15.9,88,53,31,30.01,29.78,22,8,22,0.00
2012-2-7,37.2,32.3,23.5,32.9,26.7,18.3,98,80,68,30.19,29.90,9,3,9,0.00
2012-2-8,34.3,26.6,19.8,19.7,16.5,12.3,87,67,47,30.19,29.99,9,3,9,0.00
2012-2-9,45.9,32.6,23.4,24.8,19.5,14.3,79,60,36,30.01,29.95,15,5,15,0.04
2012-2-10,37.2,32.1,29.3,24.8,18.9,15.1,80,59,42,29.99,29.75,13,5,13,0.00
2012-2-11,30.2,21.7,12.7,28.1,16.0,2.2,97,79,60,29.87,29.66,17,5,17,0.00
2012-2-12,26.8,21.5,17.6,21.7,13.8,5.5,96,73,46,29.84,29.72,16,5,16,0.00
2012-2-13,45.5,31.3,23.2,21.3,16.6,12.7,71,56,38,29.87,29.78,20,6,20,0.12
2012-2-14,39.6,34.2,28.4,33.8,23.6,11.7,98,68,42,29.90,29.78,12,4,12,0.00
2012-2-15,43.7,34.8,26.2,33.7,28.4,21.4,98,79,53,30.13,29.87,12,2,12,0.00
2012-2-16,42.6,38.4,26.6,40.9,35.6,23.4,97,90,77,30.10,29.75,14,4,14,0.00
2012-2-17,45.0,36.2,28.0,36.4,29.3,23.8,98,78,47,29.95,29.81,18,4,18,0.00
2012-2-18,47.3,33.3,27.0,35.6,28.4,22.5,98,83,50,30.04,29.69,14,4,14,0.12
2012-2-19,32.0,29.1,24.4,28.1,21.1,15.9,89,72,60,30.04,29.95,9,3,9,0.00
2012-2-20,44.6,29.5,21.9,20.2,16.5,12.0,81,60,35,30.25,30.01,9,2,9,0.00
2012-2-21,42.1,34.4,24.3,34.2,21.2,14.7,83,60,35,30.19,29.54,20,6,20,0.00
2012-2-22,48.2,39.0,32.7,39.1,32.9,28.3,98,80,48,29.57,29.31,16,6,16,0.04
2012-2-23,48.7,35.8,28.8,36.7,30.1,24.4,98,82,43,29.63,29.31,11,2,11,0.39
2012-2-24,45.1,36.6,32.7,44.3,32.8,24.3,98,87,61,29.57,29.13,28,7,28,0.25
2012-2-25,34.9,30.3,25.3,31.3,20.8,7.7,97,69,41,30.04,29.25,22,8,22,0.00
2012-2-26,42.4,28.8,18.3,18.6,14.5,9.8,74,56,37,30.31,30.04,9,3,9,0.03
2012-2-27,55.4,38.5,25.9,26.3,20.3,16.4,72,49,29,30.13,29.87,31,8,31,0.09
2012-2-28,38.5,32.2,27.9,23.7,18.4,14.8,73,57,42,30.37,30.13,15,5,15,0.00
2012-2-29,37.8,33.5,30.4,37.2,28.4,18.1,98,83,60,30.22,29.42,12,4,12,0.17
2012-3-1,45.3,39.3,37.0,41.6,34.7,28.5,98,84,58,29.81,29.39,23,4,23,0.20
2012-3-2,55.2,43.7,36.3,40.5,32.5,27.6,96,68,37,29.84,29.25,17,4,17,0.04
2012-3-3,49.3,40.8,31.5,43.7,27.0,19.5,91,59,37,29.54,29.13,28,13,28,0.04
2012-3-4,33.3,28.1,19.6,29.2,20.6,10.9,90,74,52,29.75,29.48,14,6,14,0.05
2012-3-5,32.5,20.7,12.2,12.9,6.6,2.3,80,56,34,30.28,29.75,14,5,14,0.00
2012-3-6,49.3,32.5,17.4,20.2,14.3,5.9,78,49,29,30.40,30.10,14,5,14,0.00
2012-3-7,71.4,56.5,40.1,34.0,26.3,17.1,39,32,23,30.13,29.93,20,9,20,0.00
2012-3-8,61.0,51.7,32.9,53.5,39.3,21.8,98,67,35,29.93,29.60,24,9,24,0.33
2012-3-9,42.4,31.9,25.3,33.6,18.7,6.9,91,59,40,30.22,29.90,21,7,21,0.04
2012-3-10,41.4,30.2,20.7,16.0,12.6,7.4,73,49,32,30.46,30.13,16,5,16,0.00
2012-3-11,68.5,50.9,35.8,29.2,22.0,14.3,44,33,22,30.16,30.10,17,7,17,0.00
2012-3-12,70.9,55.2,42.6,49.4,31.1,21.7,77,43,23,30.13,29.81,18,5,18,0.00
2012-3-13,68.7,59.2,48.2,55.5,46.9,34.5,95,66,36,29.93,29.72,28,7,28,0.08
2012-3-14,69.8,50.3,38.3,36.3,29.7,21.8,86,51,20,30.07,29.93,11,3,11,0.00
2012-3-15,65.5,53.8,46.6,47.0,38.6,22.9,75,58,38,30.04,29.93,7,2,7,0.00
2012-3-16,70.9,59.2,51.6,57.3,51.8,46.3,98,78,52,30.10,29.90,12,3,12,0.04
2012-3-17,78.8,54.4,46.0,54.9,48.6,44.5,98,83,39,30.19,30.04,9,2,9,0.00
2012-3-18,84.6,63.5,49.3,57.1,50.9,45.8,94,67,31,30.07,29.90,14,4,14,0.00
2012-3-19,82.4,63.7,54.9,58.2,55.1,50.9,98,76,38,30.04,29.95,10,2,10,0.05
2012-3-20,85.8,65.7,54.0,57.1,53.7,49.2,98,70,31,30.10,30.01,10,3,10,0.00
2012-3-21,88.2,67.0,57.4,56.0,52.7,48.8,88,64,28,30.13,30.01,12,4,12,0.00
2012-3-22,87.8,67.9,56.3,54.3,51.4,48.7,87,59,29,30.10,29.99,13,4,13,0.00
2012-3-23,68.4,58.4,52.5,54.1,43.3,29.1,88,61,34,30.07,29.95,13,5,13,0.00
2012-3-24,62.8,52.9,47.8,50.2,34.9,24.7,90,52,32,29.95,29.72,10,4,10,0.00
2012-3-25,67.1,52.1,44.4,50.0,47.4,36.6,98,86,44,29.75,29.66,14,3,14,0.04
2012-3-26,47.5,37.8,32.2,37.1,16.4,5.2,74,43,29,30.19,29.75,17,7,17,0.00
2012-3-27,49.6,36.1,25.3,18.0,10.2,1.5,41,34,24,30.28,29.78,9,4,9,0.00
2012-3-28,76.5,54.4,41.0,44.5,34.0,16.0,90,49,27,29.81,29.42,22,7,22,0.08
2012-3-29,43.3,39.1,37.2,39.0,31.9,22.3,98,77,53,29.99,29.63,15,5,15,0.08
2012-3-30,47.3,36.8,27.3,32.8,21.1,7.3,98,55,26,30.01,29.81,14,4,14,0.00
2012-3-31,51.3,37.6,33.1,36.1,33.2,28.8,98,86,47,29.87,29.72,14,4,14,0.21
2012-4-1,40.3,36.4,32.0,38.0,34.9,30.4,98,94,80,29.81,29.57,8,2,8,0.17
2012-4-2,57.9,43.2,33.1,37.8,26.4,14.2,98,60,22,29.90,29.66,13,4,13,0.00
2012-4-3,65.1,43.5,29.5,26.6,20.7,15.2,72,43,20,29.93,29.69,8,2,8,0.00
2012-4-4,58.8,46.9,39.0,32.3,25.4,15.6,64,44,29,29.75,29.60,20,5,20,0.00
2012-4-5,51.3,40.9,36.0,29.3,21.9,17.0,67,48,31,29.93,29.72,12,4,12,0.00
2012-4-6,59.4,43.0,30.6,27.3,21.2,14.8,75,45,19,30.07,29.90,10,4,10,0.00
2012-4-7,62.1,46.6,33.1,27.6,20.9,15.1,72,40,19,30.10,29.95,13,4,13,0.00
2012-4-8,70.5,49.2,35.1,42.4,25.8,15.4,78,43,22,29.99,29.66,17,5,17,0.00
2012-4-9,62.1,47.5,37.8,28.5,22.4,15.9,56,39,22,29.69,29.54,24,8,24,0.00
2012-4-10,51.6,43.2,36.9,34.9,26.4,18.4,92,53,35,29.72,29.51,17,5,17,0.00
2012-4-11,56.1,42.1,36.1,38.2,34.7,28.4,98,78,38,29.99,29.69,16,4,16,0.04
2012-4-12,57.4,45.3,41.7,35.4,27.3,12.2,77,51,28,30.07,29.99,7,2,7,0.00
2012-4-13,69.4,50.5,34.0,29.7,26.1,18.8,76,43,23,30.16,30.01,9,4,9,0.00
2012-4-14,72.5,55.4,40.1,47.1,30.2,21.8,69,40,22,30.07,29.84,14,4,14,0.00
2012-4-15,68.2,61.0,56.5,60.9,55.8,46.6,94,83,68,29.87,29.72,10,3,10,0.00
2012-4-16,91.8,71.0,58.6,58.8,50.4,39.7,98,52,21,29.87,29.57,24,8,24,0.08
2012-4-17,61.7,51.2,37.8,39.7,31.0,24.5,67,47,34,30.22,29.87,23,5,23,0.00
2012-4-18,58.8,44.1,30.9,31.0,26.2,22.1,80,52,31,30.25,29.93,10,2,10,0.00
2012-4-19,79.9,59.4,40.6,44.7,36.8,26.7,71,46,26,29.95,29.78,15,5,15,0.00
2012-4-20,88.3,67.0,52.5,47.0,42.0,35.1,72,45,18,29.81,29.54,22,4,22,0.00
2012-4-21,61.2,44.7,38.7,50.6,42.3,38.1,98,92,49,29.87,29.54,9,3,9,0.62
2012-4-22,43.2,40.0,38.1,39.9,36.8,33.2,98,89,70,29.90,29.66,20,6,20,0.13
2012-4-23,38.7,35.8,32.9,38.1,35.2,32.4,98,98,98,29.66,29.13,22,5,22,1.84
2012-4-24,48.6,39.1,33.6,39.9,34.3,27.8,98,84,48,29.51,29.10,18,6,18,0.16
2012-4-25,61.5,46.4,36.1,34.9,28.3,20.5,85,53,25,29.78,29.48,15,4,15,0.00
2012-4-26,67.5,46.9,35.8,44.3,33.8,27.1,95,64,27,29.75,29.42,14,4,14,0.09
2012-4-27,50.2,39.5,34.3,38.2,23.2,17.8,93,53,37,30.10,29.66,18,6,18,0.00
2012-4-28,56.7,39.8,26.6,29.6,20.9,8.7,86,50,24,30.19,30.04,7,2,7,0.00
2012-4-29,63.1,43.4,29.5,25.0,17.1,11.2,60,38,19,30.16,30.07,14,2,14,0.00
2012-4-30,61.7,46.7,32.9,47.3,28.1,17.3,94,52,24,30.19,29.84,7,2,7,0.12
2012-5-1,62.2,53.6,48.9,52.2,49.1,45.9,98,86,59,29.99,29.72,9,3,9,0.04
2012-5-2,77.0,61.4,48.6,63.2,51.3,46.4,96,73,37,29.99,29.72,8,1,8,0.08
2012-5-3,87.6,66.8,52.7,65.6,57.5,52.1,98,76,35,29.93,29.66,13,2,13,0.25
2012-5-4,79.0,67.3,56.3,63.5,59.0,53.2,98,77,49,29.87,29.69,13,4,13,0.96
2012-5-5,68.5,55.0,45.3,55.3,37.4,27.0,79,54,25,30.01,29.84,15,4,15,0.00
2012-5-6,74.1,56.8,38.7,41.6,33.0,21.6,90,48,16,30.04,29.95,8,2,8,0.00
2012-5-7,70.0,58.5,48.4,59.2,45.6,28.2,98,66,35,29.99,29.66,12,1,12,0.21
2012-5-8,70.7,60.5,54.5,64.0,58.3,53.7,98,93,72,29.69,29.54,9,2,9,0.50
2012-5-9,75.2,60.5,51.1,56.5,47.4,36.0,98,68,26,29.63,29.51,17,4,17,0.00
2012-5-10,65.7,53.2,46.0,45.8,34.3,25.2,85,53,25,29.75,29.54,19,6,19,0.00
2012-5-11,75.2,59.2,44.4,36.2,32.1,26.9,65,39,21,30.01,29.75,18,5,18,0.00
2012-5-12,84.7,69.9,50.2,44.1,36.2,23.6,69,32,19,30.07,29.99,20,6,20,0.00
2012-5-13,73.9,63.7,55.2,52.3,47.7,42.3,86,57,39,30.10,29.99,8,2,8,0.00
2012-5-14,82.2,64.6,53.4,56.2,52.8,45.0,96,70,29,30.01,29.84,8,1,8,0.00
2012-5-15,85.5,68.0,54.9,57.3,48.7,30.0,98,58,20,29.90,29.75,7,1,7,0.00
2012-5-16,80.1,61.5,46.9,54.2,42.0,31.8,75,50,30,29.99,29.66,15,4,15,0.00
2012-5-17,72.9,55.2,39.4,40.3,32.4,24.4,88,48,22,30.10,29.95,8,2,8,0.00
2012-5-18,80.1,60.7,42.6,40.1,35.2,30.3,80,44,21,30.13,29.99,7,2,7,0.00
2012-5-19,89.6,69.2,50.9,50.6,41.4,33.3,75,41,19,30.07,30.01,8,2,8,0.00
2012-5-20,94.5,73.6,56.8,56.1,48.6,41.7,86,47,19,30.10,29.95,9,2,9,0.00
2012-5-21,92.7,72.8,60.4,65.6,53.9,43.6,93,56,26,29.99,29.69,18,2,18,0.04
2012-5-22,87.6,70.0,62.8,65.4,61.7,57.6,94,77,41,29.72,29.63,9,2,9,0.00
2012-5-23,86.7,71.0,61.9,62.2,58.6,52.0,95,68,37,29.81,29.69,9,1,9,0.00
2012-5-24,92.5,74.9,59.9,63.5,57.2,50.6,96,60,28,29.87,29.78,15,3,15,0.00
2012-5-25,95.2,78.7,68.0,71.0,60.2,53.1,79,56,27,29.87,29.69,15,5,15,0.04
2012-5-26,87.8,73.9,62.8,54.4,46.1,35.1,71,41,20,30.07,29.87,6,1,6,0.00
2012-5-27,89.6,72.2,56.5,56.9,48.2,38.8,78,46,19,30.07,29.84,8,1,8,0.00
2012-5-28,98.4,78.5,61.5,66.7,59.9,50.2,90,57,27,29.90,29.54,13,3,13,0.00
2012-5-29,93.4,77.8,66.2,69.5,64.7,55.5,90,66,36,29.54,29.42,16,6,16,0.08
2012-5-30,82.4,70.2,60.4,63.8,49.9,36.3,98,56,22,29.69,29.48,10,3,10,0.00
2012-5-31,76.3,61.4,53.1,51.0,44.2,34.9,80,56,26,29.87,29.69,8,3,8,0.00
2012-6-1,61.7,57.1,52.9,60.8,52.9,41.5,98,87,60,29.90,29.39,10,1,9,0.63
2012-6-2,75.4,61.9,52.9,60.6,46.8,34.8,98,63,26,29.60,29.42,23,5,23,0.05
2012-6-3,74.7,59.5,54.3,60.9,52.6,44.3,98,79,46,29.57,29.42,14,3,14,0.58
2012-6-4,59.2,55.2,51.6,53.5,51.0,50.0,95,86,78,29.69,29.48,8,3,8,0.00
2012-6-5,78.4,63.1,49.6,53.8,47.4,40.0,98,62,30,29.84,29.69,10,2,10,0.00
2012-6-6,84.4,65.8,49.8,52.4,47.3,37.7,94,57,24,29.90,29.75,10,2,10,0.00
2012-6-7,87.1,68.0,54.3,56.3,50.9,39.1,96,61,22,29.90,29.78,8,3,8,0.00
2012-6-8,89.4,71.1,56.7,54.4,48.7,38.8,86,51,19,29.84,29.69,15,5,15,0.00
2012-6-9,83.5,70.0,60.4,65.9,59.4,46.3,98,71,44,29.75,29.66,16,3,16,0.46
2012-6-10,94.5,76.4,63.7,65.0,61.5,57.8,98,64,32,29.87,29.69,9,2,9,0.08
2012-6-11,99.0,80.5,65.8,66.2,59.5,49.8,91,55,20,29.87,29.72,13,4,13,0.00
2012-6-12,83.5,70.3,60.1,72.4,65.9,46.6,98,87,61,29.75,29.54,14,4,14,0.92
2012-6-13,78.4,63.6,54.4,50.3,46.5,24.3,84,57,31,30.01,29.72,8,2,8,0.00
2012-6-14,80.8,65.7,51.6,58.6,49.2,41.5,97,61,30,30.13,29.99,10,2,10,0.00
2012-6-15,89.4,71.9,54.7,56.4,50.8,45.8,90,52,27,30.10,30.01,9,2,9,0.00
2012-6-17,77.0,74.9,73.4,57.9,56.1,55.0,53,52,51,29.72,29.66,14,5,14,0.00
2012-6-18,91.8,75.5,68.0,64.3,60.1,54.2,79,60,37,29.75,29.66,13,4,13,0.00
2012-6-19,96.1,82.2,66.0,70.7,63.7,59.1,98,56,33,29.81,29.72,15,6,15,0.29
2012-6-20,102.0,84.7,73.8,67.8,61.9,51.1,77,50,22,29.84,29.72,13,5,13,0.00
2012-6-21,97.7,83.6,70.7,66.8,59.3,51.3,79,48,23,29.75,29.57,18,6,18,0.00
2012-6-22,90.1,75.8,67.3,67.0,57.4,44.5,87,57,29,29.75,29.54,9,3,9,0.00
2012-6-23,88.9,73.2,59.5,58.1,51.0,43.0,79,50,22,29.90,29.72,9,3,9,0.00
2012-6-24,91.0,71.1,60.3,58.4,53.4,43.0,85,57,20,29.90,29.63,10,3,10,0.00
2012-6-25,75.2,66.0,61.5,60.9,49.7,39.6,96,59,31,29.75,29.57,13,4,13,0.08
2012-6-26,81.7,68.7,58.5,51.7,45.2,36.8,76,47,23,29.78,29.66,15,5,15,0.00
2012-6-27,86.7,70.6,58.5,56.1,48.0,37.7,87,50,20,29.75,29.66,15,4,15,0.00
2012-6-28,97.3,79.0,61.9,56.8,52.9,46.0,78,45,20,29.72,29.48,10,3,10,0.00
2012-6-29,98.6,82.8,72.1,63.2,54.4,43.5,73,42,17,29.57,29.48,15,5,15,0.00
2012-6-30,96.3,79.6,67.1,64.9,55.4,42.2,89,50,17,29.66,29.48,21,6,21,0.00
2012-7-1,92.8,77.5,65.8,62.1,54.2,45.7,87,49,22,29.81,29.60,10,3,10,0.00
2012-7-2,94.8,79.4,61.9,60.1,50.4,42.3,83,42,18,29.87,29.78,10,3,10,0.00
2012-7-3,95.7,75.6,63.1,69.0,57.8,47.9,81,57,23,29.84,29.54,15,3,15,0.00
2012-7-4,100.2,83.6,69.1,71.8,64.3,57.6,83,56,27,29.63,29.48,15,5,15,0.00
2012-7-5,93.4,78.4,69.1,63.4,56.0,46.3,75,49,26,29.78,29.54,7,2,7,0.00
2012-7-6,101.3,83.9,68.7,69.5,59.5,46.3,84,48,19,29.78,29.60,12,4,12,0.00
2012-7-7,88.9,75.8,68.4,69.8,65.0,56.9,93,71,45,29.72,29.60,8,2,8,0.05
2012-7-8,91.2,75.9,65.3,66.1,59.3,50.4,93,61,29,29.78,29.66,10,2,10,0.00
2012-7-9,90.9,74.1,63.5,60.7,48.8,38.0,83,46,18,29.90,29.72,8,2,8,0.00
2012-7-10,91.0,74.9,61.0,55.5,47.7,34.7,78,43,17,29.99,29.84,8,2,8,0.00
2012-7-11,93.2,74.9,61.0,51.0,41.7,14.5,68,34,16,30.01,29.95,9,2,9,0.00
2012-7-12,96.6,77.3,61.7,55.3,48.4,41.7,67,40,17,30.04,29.95,7,2,7,0.00
2012-7-13,102.4,80.8,67.8,65.3,58.1,46.4,76,50,16,29.99,29.87,10,3,10,0.00
2012-7-14,99.3,81.3,69.6,66.0,60.3,51.2,81,53,20,29.99,29.81,10,4,10,0.00
2012-7-15,93.6,78.6,72.1,73.0,64.5,52.2,85,65,26,29.87,29.66,10,3,10,0.00
2012-7-16,98.6,81.5,70.0,69.9,61.5,47.5,95,57,19,29.72,29.60,12,4,12,0.00
2012-7-17,101.8,87.1,72.3,69.8,59.5,53.3,90,42,22,29.63,29.45,23,8,23,0.12
2012-7-18,92.1,79.4,68.4,72.4,60.8,49.7,96,58,27,29.81,29.48,7,2,7,0.36
2012-7-19,80.2,71.0,62.4,63.5,53.9,45.7,90,57,35,29.87,29.72,12,3,12,0.00
2012-7-20,81.3,71.0,64.4,59.6,52.2,46.5,84,52,34,29.90,29.81,10,2,10,0.00
2012-7-21,94.3,74.5,59.5,63.5,58.3,44.1,98,64,19,29.87,29.78,8,2,8,0.00
2012-7-22,92.3,77.9,66.6,62.2,59.6,55.6,81,56,32,29.87,29.75,13,4,13,0.00
2012-7-23,100.6,83.4,69.1,70.5,62.1,47.8,98,56,20,29.87,29.45,20,6,20,0.59
2012-7-24,89.1,77.8,65.5,70.0,58.5,44.3,80,54,25,29.75,29.42,17,4,17,0.00
2012-7-25,92.8,74.0,60.1,61.4,52.4,43.0,93,52,20,29.75,29.57,8,2,8,0.08
2012-7-26,89.8,74.2,64.2,71.6,66.1,59.1,98,78,43,29.57,29.33,20,4,20,1.00
2012-7-27,89.1,74.9,67.5,69.9,62.5,51.8,98,70,32,29.69,29.39,6,2,6,0.04
2012-7-28,87.3,73.9,67.1,69.5,63.8,54.3,98,74,40,29.78,29.66,9,1,9,0.17
2012-7-29,94.5,75.9,61.2,67.6,53.4,35.0,98,56,15,29.90,29.75,6,2,6,0.00
2012-7-30,95.9,76.1,62.6,61.2,54.2,40.0,88,53,17,29.90,29.75,12,3,12,0.00
2012-7-31,97.7,75.3,66.4,68.7,64.0,55.0,98,73,27,29.78,29.54,16,4,16,0.66
2012-8-1,90.1,74.8,65.3,71.2,62.9,53.2,98,72,31,29.63,29.57,10,3,10,0.00
2012-8-2,94.6,77.0,64.2,70.5,61.9,52.2,98,64,27,29.69,29.57,10,3,10,0.00
2012-8-3,98.2,81.2,71.8,71.9,63.5,58.5,73,57,33,29.81,29.63,8,3,8,0.00
2012-8-4,101.7,85.1,71.6,71.8,64.9,57.5,88,56,26,29.87,29.72,14,4,14,0.00
2012-8-5,91.2,78.6,67.6,73.7,68.5,63.9,98,73,46,29.78,29.60,21,7,21,1.69
2012-8-6,87.3,70.6,59.4,64.1,54.6,44.1,95,62,29,29.90,29.78,10,2,10,0.00
2012-8-7,93.9,74.1,58.8,58.8,51.6,40.1,92,54,18,29.84,29.72,13,4,13,0.00
2012-8-8,96.1,73.6,63.9,65.1,60.1,51.4,89,66,26,29.75,29.63,10,4,10,0.00
2012-8-9,86.9,74.4,66.9,68.5,64.9,59.3,90,74,47,29.69,29.57,8,3,8,0.00
2012-8-10,86.9,71.2,66.4,73.2,65.9,62.1,98,85,54,29.60,29.42,12,2,12,0.80
2012-8-11,83.8,70.5,63.1,66.7,59.0,49.7,98,72,32,29.66,29.48,17,6,17,0.00
2012-8-12,82.8,69.5,62.6,67.7,61.4,57.3,91,77,43,29.72,29.63,12,5,12,0.21
2012-8-13,93.2,73.8,63.0,64.0,58.6,49.5,98,64,25,29.78,29.66,9,2,9,0.00
2012-8-14,88.0,70.8,64.4,66.4,62.9,57.6,98,79,40,29.72,29.57,8,1,8,0.29
2012-8-15,86.2,70.8,62.6,64.9,55.5,37.2,98,64,31,29.75,29.66,7,1,7,0.00
2012-8-16,92.8,74.5,61.2,64.7,56.4,46.0,98,61,21,29.75,29.60,10,3,10,0.00
2012-8-17,84.2,72.1,62.6,66.1,58.1,49.1,89,63,35,29.72,29.48,14,4,14,0.00
2012-8-18,82.6,65.7,54.1,54.6,46.4,35.7,85,54,25,29.87,29.72,8,2,8,0.00
2012-8-19,89.4,67.8,53.8,54.1,48.7,38.0,90,57,18,29.87,29.72,10,3,10,0.00
2012-8-20,84.0,68.3,55.6,58.3,49.4,40.0,90,56,26,29.87,29.69,7,2,7,0.00
2012-8-21,87.4,67.4,53.4,54.7,47.9,37.0,94,56,19,29.93,29.84,8,2,8,0.00
2012-8-22,90.1,70.1,56.3,58.4,52.1,44.0,85,58,22,30.01,29.90,13,3,13,0.00
2012-8-23,92.1,73.2,58.8,59.0,52.8,43.0,86,55,21,29.99,29.93,9,3,9,0.00
2012-8-24,98.2,76.0,60.6,58.4,53.1,41.8,86,51,16,30.01,29.93,9,3,9,0.00
2012-8-25,100.9,79.0,64.2,60.7,54.6,43.8,86,50,16,30.04,29.95,10,3,10,0.00
2012-8-26,95.9,77.4,63.9,61.8,57.6,50.6,83,54,26,30.07,29.87,10,2,10,0.00
2012-8-27,84.7,72.6,67.5,70.4,64.9,59.8,97,78,51,29.90,29.66,15,4,15,0.08
2012-8-28,85.8,72.3,62.6,68.7,60.0,49.3,98,70,31,29.78,29.63,13,4,13,0.00
2012-8-29,81.5,67.7,57.9,55.8,44.0,30.5,78,47,20,29.87,29.75,8,2,8,0.00
2012-8-30,91.2,71.2,53.8,58.8,52.3,42.1,88,56,26,29.90,29.75,12,5,12,0.00
2012-8-31,97.5,77.5,63.1,67.2,55.0,49.5,70,49,21,29.78,29.63,18,6,18,0.00
2012-9-1,89.8,73.2,62.8,64.5,56.4,41.0,93,60,23,29.90,29.75,10,2,10,0.00
2012-9-2,94.3,71.9,57.9,59.6,53.3,41.2,89,58,17,29.93,29.84,9,2,9,0.00
2012-9-3,94.5,75.2,59.7,67.7,61.2,51.9,87,65,34,29.87,29.69,12,3,12,0.00
2012-9-4,88.9,71.9,67.1,72.2,68.7,66.3,98,91,51,29.72,29.48,8,2,8,3.39
2012-9-5,89.4,72.7,65.1,71.0,64.3,58.1,98,79,38,29.66,29.57,7,1,7,0.05
2012-9-6,88.7,74.6,66.9,70.3,63.0,52.8,90,69,39,29.66,29.54,10,3,10,0.00
2012-9-7,90.9,72.7,60.4,66.3,59.6,51.4,98,70,28,29.69,29.45,12,2,12,0.04
2012-9-8,71.2,65.6,56.3,69.0,60.8,51.4,98,85,60,29.57,29.19,20,4,20,0.25
2012-9-9,74.8,61.4,54.5,56.1,49.1,34.7,98,68,25,29.87,29.57,10,3,10,0.00
2012-9-10,76.1,60.7,48.7,49.5,39.6,30.0,93,52,22,30.04,29.84,10,2,10,0.00
2012-9-11,85.3,63.2,48.4,53.7,45.9,37.2,92,59,20,30.10,30.01,10,3,10,0.00
2012-9-12,89.6,68.8,55.8,53.6,47.9,37.9,82,54,18,30.13,30.01,12,4,12,0.00
2012-9-13,92.5,72.9,60.1,58.3,52.8,43.2,82,55,20,30.10,29.95,10,4,10,0.00
2012-9-14,89.4,67.6,55.0,65.5,58.9,53.3,98,76,34,29.99,29.81,13,4,13,0.29
2012-9-15,72.7,58.5,51.3,54.2,50.0,44.3,97,76,42,30.04,29.93,9,2,9,0.00
2012-9-16,80.1,62.3,48.6,54.1,49.3,43.6,98,67,30,29.99,29.84,10,3,10,0.00
2012-9-17,84.6,66.8,55.2,52.9,47.3,37.0,87,55,20,29.90,29.72,11,4,11,0.00
2012-9-18,79.5,63.0,51.1,66.8,58.1,45.8,98,85,55,29.72,29.22,14,3,14,0.45
2012-9-19,71.8,54.7,46.2,47.2,41.6,32.9,98,66,25,30.04,29.63,12,2,12,0.00
2012-9-20,80.8,60.6,43.0,47.4,42.0,34.2,97,58,21,30.01,29.78,15,4,15,0.00
2012-9-21,77.4,63.3,57.4,60.0,54.0,47.2,98,73,44,29.81,29.63,13,3,13,0.08
2012-9-22,69.6,59.4,51.6,58.4,50.7,38.9,98,75,38,29.75,29.42,14,4,14,0.04
2012-9-23,67.6,53.4,45.1,44.0,38.0,28.6,91,60,26,29.99,29.72,15,4,15,0.00
2012-9-24,66.7,52.1,41.5,42.7,38.2,32.3,97,64,30,30.01,29.84,17,5,17,0.00
2012-9-25,79.9,61.2,49.8,49.2,37.5,31.1,70,45,20,29.87,29.78,15,6,15,0.00
2012-9-26,75.2,63.6,57.2,60.5,53.4,37.1,85,70,45,29.93,29.72,14,4,14,0.00
2012-9-27,70.7,55.3,45.9,49.6,40.1,34.6,87,59,31,30.10,29.93,11,2,11,0.00
2012-9-28,60.6,52.7,44.4,53.1,47.2,39.8,97,82,64,30.04,29.87,8,1,8,0.00
2012-9-29,68.0,54.2,46.4,54.4,45.9,38.5,98,77,36,29.90,29.78,7,1,7,0.00
2012-9-30,61.9,53.7,49.8,54.5,50.1,47.1,98,88,63,29.81,29.60,6,2,6,0.39
2012-10-1,71.1,58.4,52.3,53.0,48.6,44.4,96,72,41,29.72,29.57,10,3,10,0.00
2012-10-2,68.2,59.6,52.5,61.8,56.6,48.6,98,90,71,29.72,29.66,7,1,7,0.04
2012-10-3,72.9,65.3,60.6,66.4,63.0,60.1,98,93,76,29.90,29.66,7,0,7,0.00
2012-10-4,81.5,67.1,59.5,62.4,53.9,43.1,98,67,28,29.93,29.81,12,4,12,0.00
2012-10-5,73.2,62.9,54.7,58.7,54.2,49.3,91,74,53,29.90,29.66,14,5,14,0.00
2012-10-6,64.2,51.3,45.7,52.6,39.8,28.3,98,69,32,29.90,29.60,15,5,15,0.87
2012-10-7,57.9,47.1,39.2,42.4,37.6,31.9,98,71,40,29.99,29.84,9,2,9,0.08
2012-10-8,61.5,45.8,37.0,43.0,38.5,33.1,98,79,38,30.10,29.95,10,3,10,0.00
2012-10-9,69.3,48.7,36.3,42.7,38.0,31.2,98,72,26,30.10,29.84,12,3,12,0.00
2012-10-10,57.6,47.9,43.7,43.7,34.8,29.2,89,62,44,29.87,29.66,14,4,14,0.00
2012-10-11,62.2,48.3,37.9,32.4,28.5,20.9,78,49,26,30.07,29.87,16,6,16,0.00
2012-10-12,53.6,44.5,33.3,44.0,30.0,15.0,94,61,26,30.31,29.90,13,4,13,0.13
2012-10-13,58.1,42.6,30.4,43.6,24.7,10.9,91,54,17,30.31,29.87,10,3,10,0.08
2012-10-14,73.0,63.1,46.4,59.3,53.6,42.9,98,74,45,29.87,29.45,20,6,20,0.33
2012-10-15,68.0,57.2,46.2,55.8,45.9,35.0,80,66,48,29.66,29.31,21,7,21,0.00
2012-10-16,61.7,47.0,39.6,41.8,35.1,28.1,86,65,33,29.81,29.63,10,3,10,0.00
2012-10-17,71.4,54.1,37.9,41.6,36.1,28.3,96,58,23,29.81,29.66,10,2,10,0.00
2012-10-18,71.8,58.6,49.6,47.4,41.0,37.0,84,54,32,29.75,29.57,22,4,22,0.09
2012-10-19,70.5,54.8,45.3,56.0,50.4,44.8,98,87,46,29.75,29.42,7,1,7,0.16
2012-10-20,62.2,52.4,47.3,55.6,43.0,35.2,98,73,39,29.63,29.42,17,6,17,0.00
2012-10-21,66.6,53.2,45.9,47.6,43.0,33.0,97,73,31,29.93,29.63,13,5,13,0.00
2012-10-22,72.9,54.8,45.5,50.2,44.0,38.8,98,72,31,29.99,29.81,9,3,9,0.00
2012-10-23,52.5,51.3,48.0,52.0,49.2,42.2,98,93,75,29.93,29.84,6,2,6,0.58
2012-10-24,58.8,54.9,50.9,57.4,54.0,50.4,98,97,92,29.93,29.84,5,0,5,0.00
2012-10-25,86.0,68.4,55.2,61.4,54.0,46.2,98,67,26,29.90,29.72,13,3,13,0.00
2012-10-26,83.1,62.7,48.6,55.6,51.8,44.6,97,70,32,29.95,29.75,17,6,17,0.00
2012-10-27,52.0,49.7,46.2,51.3,49.2,45.7,98,98,97,29.95,29.72,9,3,9,0.42
2012-10-28,46.2,44.4,43.7,45.7,43.9,43.2,98,98,98,29.90,29.69,8,4,8,0.33
2012-10-29,52.7,47.3,45.7,52.2,46.8,45.1,98,98,97,29.69,28.89,29,8,29,1.05
2012-10-30,57.6,52.5,42.4,55.5,47.6,39.5,98,84,56,29.25,28.89,32,7,32,0.16
2012-10-31,49.1,44.3,41.5,41.7,37.6,30.7,94,78,51,29.33,29.19,9,3,9,0.00
2012-11-1,47.1,43.9,41.7,43.9,41.1,37.3,98,90,73,29.48,29.28,13,5,13,0.12
2012-11-2,43.5,39.9,37.6,39.3,35.1,30.1,93,83,66,29.75,29.45,13,5,13,0.04
2012-11-3,40.6,38.5,36.7,34.5,30.2,25.8,89,72,59,29.93,29.72,15,6,15,0.04
2012-11-4,40.5,35.9,34.0,34.9,29.1,23.7,93,76,62,29.99,29.87,9,4,9,0.00
2012-11-5,37.2,35.2,33.4,31.1,23.6,17.5,87,63,49,30.04,29.93,8,3,8,0.04
2012-11-6,49.6,36.4,31.1,22.5,19.4,16.8,60,50,30,30.07,29.93,8,3,8,0.00
2012-11-7,44.2,35.0,24.4,27.2,21.2,13.5,94,59,30,30.01,29.90,10,3,10,0.00
2012-11-8,48.0,36.3,30.0,26.8,20.2,15.2,75,54,29,30.01,29.90,10,4,10,0.00
2012-11-9,52.0,40.9,28.8,38.5,31.4,17.5,85,70,47,30.07,29.93,8,3,8,0.00
2012-11-10,54.5,47.3,39.2,45.5,40.5,37.4,98,78,55,30.16,30.04,8,2,8,0.00
2012-11-11,74.8,59.3,49.1,46.9,37.4,29.7,91,49,21,30.13,30.01,14,4,14,0.21
2012-11-12,69.8,58.5,41.7,51.6,41.2,32.4,95,56,37,30.04,29.72,23,7,23,0.25
2012-11-13,41.7,38.3,36.3,39.6,22.3,16.0,92,53,41,30.37,30.01,13,4,13,0.00
2012-11-14,41.2,36.3,28.6,27.6,22.5,19.1,84,58,49,30.49,30.31,6,1,6,0.00
2012-11-15,28.6,27.7,27.1,24.9,24.5,24.1,89,88,84,30.34,30.28,0,0,0,0.00
2012-11-16,36.7,33.3,32.2,32.1,30.2,28.9,96,88,76,30.37,30.34,5,1,5,0.00
2012-11-17,58.1,37.6,29.3,34.6,29.9,25.6,98,78,33,30.49,30.37,8,2,8,0.00
2012-11-18,55.9,39.1,27.9,37.4,30.2,26.6,98,75,36,30.49,30.34,6,2,6,0.00
2012-11-19,58.1,40.0,29.3,34.8,31.1,26.9,96,74,32,30.37,30.07,8,2,8,0.00
2012-11-20,52.2,40.2,33.8,37.9,33.8,28.5,96,79,43,30.13,29.99,7,1,7,0.00
2012-11-21,59.9,41.0,30.7,39.6,34.0,25.9,98,81,28,30.13,30.01,7,2,7,0.00
2012-11-22,66.9,46.2,34.9,34.6,28.2,23.5,83,53,24,30.07,29.84,10,3,10,0.00
2012-11-23,55.4,46.9,35.4,44.0,30.4,20.1,82,54,38,29.87,29.51,21,8,21,0.00
2012-11-24,38.5,34.1,32.0,26.5,20.0,13.9,77,56,45,29.78,29.54,21,8,21,0.00
2012-11-25,35.6,33.0,31.8,28.9,22.6,15.4,84,66,50,29.78,29.66,13,5,13,0.00
2012-11-26,43.3,36.2,33.1,26.9,23.0,16.3,76,59,40,30.10,29.69,13,5,13,0.00
2012-11-27,38.7,34.1,30.9,24.6,18.5,14.8,63,53,44,30.16,30.07,7,3,7,0.00
2012-11-28,38.8,34.9,32.9,26.8,19.9,15.5,77,54,46,30.13,29.99,14,6,14,0.00
2012-11-29,51.4,38.6,29.3,32.6,23.5,15.4,83,55,38,30.16,30.01,15,6,15,0.00
2012-11-30,36.3,28.5,25.9,31.6,22.1,16.9,93,77,62,30.31,30.13,13,5,13,0.00
2012-12-1,48.4,37.0,27.1,36.5,29.9,24.0,98,77,56,30.25,30.04,13,3,13,0.00
2012-12-2,52.7,49.8,47.5,52.2,43.2,34.0,98,79,58,30.04,29.78,20,8,20,0.17
2012-12-3,54.7,47.1,43.3,46.5,42.2,39.6,95,84,59,30.10,29.95,8,2,8,0.00
2012-12-4,71.8,57.2,47.7,57.0,50.7,40.6,98,81,38,29.99,29.72,18,7,18,0.28
2012-12-5,48.2,36.5,30.4,42.6,23.4,12.4,90,60,42,30.22,29.81,18,6,18,0.00
2012-12-6,44.2,33.7,23.5,20.1,16.3,12.3,72,50,33,30.25,29.90,9,3,9,0.00
2012-12-7,48.0,41.3,34.5,39.5,29.6,14.1,92,65,40,29.90,29.78,10,4,10,0.00
2012-12-8,46.9,41.5,36.0,46.4,40.3,29.6,98,96,78,30.01,29.60,13,3,13,0.09
2012-12-9,43.0,35.7,30.7,42.5,31.1,25.6,98,84,65,30.16,29.60,10,4,10,0.20
2012-12-10,52.9,44.4,34.9,50.0,41.4,29.6,98,89,78,29.63,29.36,17,6,17,0.09
2012-12-11,35.8,30.5,25.2,29.9,25.2,22.8,96,81,64,30.04,29.63,10,3,10,0.00
2012-12-12,45.5,35.9,30.7,28.8,26.3,21.3,90,69,42,30.28,30.01,15,4,15,0.00
2012-12-13,48.6,38.1,28.9,28.2,19.7,15.0,84,50,27,30.28,30.01,15,5,15,0.00
2012-12-14,50.2,38.1,32.5,29.3,23.3,16.4,78,56,39,30.13,30.01,16,4,16,0.00
2012-12-15,43.3,37.2,33.3,33.8,30.2,27.3,93,76,55,30.16,29.87,8,3,8,0.00
2012-12-16,58.8,47.4,39.2,44.1,36.4,28.6,92,67,42,29.87,29.57,18,6,18,0.00
2012-12-17,50.5,47.1,44.8,47.0,44.4,41.7,98,91,75,29.63,29.42,9,3,9,0.21
2012-12-18,44.8,42.1,39.0,44.3,38.7,26.0,98,89,58,29.57,29.33,13,3,13,0.41
2012-12-19,47.1,37.4,30.0,35.7,28.2,21.2,98,71,41,30.04,29.57,12,3,12,0.00
2012-12-20,42.4,33.6,25.9,37.4,24.7,17.5,98,71,47,30.07,29.31,20,4,20,0.16
2012-12-21,42.1,35.9,30.6,38.6,35.2,28.2,98,97,79,29.33,29.07,13,4,13,0.49
2012-12-22,34.2,30.5,27.5,29.0,22.6,17.3,98,73,52,29.75,29.19,20,1,20,0.00
2012-12-23,40.3,32.8,28.6,27.3,22.7,14.4,88,67,48,29.87,29.63,14,4,14,0.00
2012-12-24,39.0,31.0,28.6,27.3,18.7,15.2,93,61,40,29.93,29.72,12,3,12,0.00
2012-12-25,35.6,30.1,28.8,29.9,25.1,21.3,98,82,58,30.19,29.75,12,2,12,0.00
2012-12-26,29.7,25.1,22.6,27.4,19.8,12.4,98,80,60,30.19,29.66,23,4,23,0.00
2012-12-27,29.5,26.4,24.1,29.0,25.5,21.9,98,97,90,29.90,29.54,22,6,22,0.00
2012-12-28,33.1,26.8,23.5,25.5,22.6,19.7,93,84,63,30.01,29.87,11,3,11,0.00
2012-12-29,32.4,27.2,24.3,29.0,25.3,20.9,98,92,81,29.90,29.54,6,1,6,0.00
2012-12-30,32.9,26.0,22.3,24.9,17.4,11.5,98,71,46,30.10,29.69,17,6,17,0.00
2012-12-31,39.7,32.0,27.0,27.3,22.6,16.1,80,69,43,30.04,29.66,17,7,17,0.00
2013-1-1,34.0,24.6,13.1,26.9,13.6,5.9,84,63,42,29.90,29.69,13,5,13,0.00